logo
Search for airport 
image banner adimage banner adimage banner ad
image banner ad

UKHK - Kremenchuk/Velyka Kokhnivka

Located in Kremenchuk, Ukraine

ICAO - , IATA - KHU

Data provided by Airmate  

General information

Coordinates: N49°8'3" E33°28'36"
Elevation is 269 feet MSL.
Magnetic variation is 8° East
View others Airports in Poltava

Operational data

Special qualification required
Current time UTC:
Current local time:
Weather at : - ( 0 km )
METAR: KEFD 152154Z 21005KT 10SM SCT035 33/23 A2998
View NOTAMs / SUP AIP / TFR affecting this airport [VIEW]
Communications frequencies: [VIEW]

Runways:

RWY identifierQFULength (ft)Width (ft)SurfaceLDA (ft)
0114°5249246GRASS5085
19194°5249246GRASS5085
18185°3281361GRASS3281
363281361GRASS3117

Airport contact information

Address: Kremenchuk Ukraine

Satellite view of UKHK